createdAt,value
2018-09-18T00:01:00.386Z,5.30
2018-09-18T00:03:27.917Z,5.57
2018-09-18T00:05:56.481Z,5.33
2018-09-18T00:08:25.042Z,5.63
2018-09-18T00:10:52.524Z,6.77
2018-09-18T00:13:20.029Z,5.43
2018-09-18T00:15:47.670Z,5.67
2018-09-18T00:18:15.238Z,5.80
2018-09-18T00:20:43.257Z,6.20
2018-09-18T00:23:11.815Z,5.50
2018-09-18T00:25:39.378Z,5.40
2018-09-18T00:28:07.186Z,5.60
2018-09-18T00:30:34.830Z,5.67
2018-09-18T00:33:02.333Z,5.87
2018-09-18T00:35:30.128Z,5.97
2018-09-18T00:37:58.327Z,5.43
2018-09-18T00:40:26.399Z,5.43
2018-09-18T00:42:53.898Z,5.93
2018-09-18T00:45:21.454Z,5.40
2018-09-18T00:47:48.929Z,6.50
2018-09-18T00:50:16.497Z,5.23
2018-09-18T00:52:44.045Z,5.70
2018-09-18T00:55:11.606Z,5.77
2018-09-18T00:57:39.224Z,5.10
2018-09-18T01:00:07.080Z,5.90
2018-09-18T01:02:34.667Z,6.30
2018-09-18T01:05:02.388Z,5.10
2018-09-18T01:07:30.241Z,5.37
2018-09-18T01:09:57.736Z,5.13
2018-09-18T01:12:25.239Z,4.80
2018-09-18T01:14:52.782Z,4.40
2018-09-18T01:17:20.322Z,4.13
2018-09-18T01:19:48.294Z,4.27
2018-09-18T01:22:16.074Z,3.50
2018-09-18T01:24:43.791Z,4.27
2018-09-18T01:27:12.168Z,4.27
2018-09-18T01:29:39.705Z,4.30
2018-09-18T01:32:07.243Z,3.70
2018-09-18T01:34:34.858Z,4.30
2018-09-18T01:37:03.406Z,4.20
2018-09-18T01:39:31.182Z,3.60
2018-09-18T01:41:59.274Z,3.70
2018-09-18T01:44:27.555Z,3.50
2018-09-18T01:46:55.110Z,3.90
2018-09-18T01:49:22.892Z,3.37
2018-09-18T01:51:50.699Z,4.07
2018-09-18T01:54:18.500Z,4.00
2018-09-18T01:56:46.753Z,3.60
2018-09-18T01:59:14.340Z,3.43
2018-09-18T02:01:41.862Z,3.67
2018-09-18T02:04:15.289Z,3.23
2018-09-18T02:06:42.978Z,2.97
2018-09-18T02:09:10.738Z,3.13
2018-09-18T02:11:38.456Z,4.03
2018-09-18T02:14:06.374Z,3.67
2018-09-18T02:16:34.503Z,3.53
2018-09-18T02:19:02.554Z,3.33
2018-09-18T02:21:30.230Z,3.87
2018-09-18T02:23:57.730Z,4.27
2018-09-18T02:26:25.616Z,3.30
2018-09-18T02:28:53.590Z,3.90
2018-09-18T02:31:21.139Z,3.33
2018-09-18T02:33:49.054Z,3.80
2018-09-18T02:36:16.560Z,3.73
2018-09-18T02:38:44.176Z,3.83
2018-09-18T02:41:11.874Z,3.77
2018-09-18T02:43:39.951Z,3.20
2018-09-18T02:46:07.663Z,3.47
2018-09-18T02:48:35.392Z,3.50
2018-09-18T02:51:02.833Z,3.40
2018-09-18T02:53:30.399Z,4.17
2018-09-18T02:55:57.975Z,4.17
2018-09-18T02:58:26.368Z,3.90
2018-09-18T03:00:53.939Z,3.70
2018-09-18T03:03:21.958Z,3.70
2018-09-18T03:05:49.600Z,4.30
2018-09-18T03:08:17.078Z,3.57
2018-09-18T03:10:44.574Z,3.40
2018-09-18T03:13:12.920Z,3.60
2018-09-18T03:15:40.919Z,4.27
2018-09-18T03:18:08.428Z,3.63
2018-09-18T03:20:36.126Z,3.43
2018-09-18T03:23:04.321Z,3.03
2018-09-18T03:25:31.862Z,3.40
2018-09-18T03:28:00.010Z,3.70
2018-09-18T03:30:27.579Z,3.50
2018-09-18T03:32:55.125Z,3.53
2018-09-18T03:35:23.019Z,3.60
2018-09-18T03:37:50.509Z,3.13
2018-09-18T03:40:18.971Z,3.20
2018-09-18T03:42:47.098Z,3.40
2018-09-18T03:45:14.605Z,3.70
2018-09-18T03:47:42.480Z,3.33
2018-09-18T03:50:09.987Z,3.60
2018-09-18T03:52:38.087Z,3.33
2018-09-18T03:55:12.215Z,3.70
2018-09-18T03:57:39.775Z,3.30
2018-09-18T04:00:07.301Z,3.37
2018-09-18T04:02:34.841Z,3.70
2018-09-18T04:05:02.345Z,4.10
2018-09-18T04:07:29.835Z,3.17
2018-09-18T04:09:57.329Z,3.57
2018-09-18T04:12:24.826Z,3.17
2018-09-18T04:14:52.334Z,3.70
2018-09-18T04:17:20.382Z,3.70
2018-09-18T04:19:47.877Z,3.03
2018-09-18T04:22:15.491Z,4.30
2018-09-18T04:24:43.005Z,3.50
2018-09-18T04:27:10.500Z,3.73
2018-09-18T04:29:38.017Z,4.10
2018-09-18T04:32:05.586Z,3.90
2018-09-18T04:34:33.138Z,3.67
2018-09-18T04:37:00.714Z,3.60
2018-09-18T04:39:28.260Z,4.10
2018-09-18T04:41:55.746Z,4.10
2018-09-18T04:44:23.249Z,3.80
2018-09-18T04:46:50.758Z,3.37
2018-09-18T04:49:18.251Z,4.20
2018-09-18T04:51:45.735Z,3.77
2018-09-18T04:54:13.250Z,3.93
2018-09-18T04:56:40.753Z,3.43
2018-09-18T04:59:08.264Z,3.97
2018-09-18T05:01:36.000Z,3.70
2018-09-18T05:04:03.546Z,4.10
2018-09-18T05:06:31.105Z,4.10
2018-09-18T05:08:58.585Z,3.70
2018-09-18T05:11:26.120Z,4.27
2018-09-18T05:13:53.680Z,3.90
2018-09-18T05:16:21.146Z,4.33
2018-09-18T05:18:48.643Z,4.37
2018-09-18T05:21:16.214Z,4.27
2018-09-18T05:23:43.723Z,4.63
2018-09-18T05:26:11.223Z,4.00
2018-09-18T05:28:38.927Z,3.60
2018-09-18T05:31:06.519Z,3.97
2018-09-18T05:33:34.092Z,4.53
2018-09-18T05:36:01.651Z,3.90
2018-09-18T05:38:29.165Z,4.20
2018-09-18T05:40:56.674Z,4.40
2018-09-18T05:43:24.206Z,4.73
2018-09-18T05:45:51.730Z,4.63
2018-09-18T05:48:19.294Z,4.70
2018-09-18T05:50:46.811Z,3.93
2018-09-18T05:53:14.696Z,4.17
2018-09-18T05:55:42.205Z,4.53
2018-09-18T05:58:09.823Z,5.13
2018-09-18T06:00:37.503Z,4.63
2018-09-18T06:03:05.046Z,4.43
2018-09-18T06:05:32.618Z,4.30
2018-09-18T06:08:00.113Z,4.97
2018-09-18T06:10:27.663Z,4.23
2018-09-18T06:12:55.208Z,4.43
2018-09-18T06:15:23.002Z,4.73
2018-09-18T06:17:50.544Z,4.40
2018-09-18T06:20:18.074Z,4.00
2018-09-18T06:22:45.638Z,4.80
2018-09-18T06:25:13.160Z,4.20
2018-09-18T06:27:51.632Z,4.73
2018-09-18T06:30:19.196Z,4.60
2018-09-18T06:32:46.738Z,4.60
2018-09-18T06:35:14.634Z,5.50
2018-09-18T06:37:42.175Z,5.30
2018-09-18T06:40:09.737Z,4.80
2018-09-18T06:42:38.090Z,5.20
2018-09-18T06:45:05.786Z,4.90
2018-09-18T06:47:33.306Z,4.40
2018-09-18T06:50:00.847Z,4.80
2018-09-18T06:52:28.360Z,4.20
2018-09-18T06:54:55.885Z,5.10
2018-09-18T06:57:23.473Z,4.60
2018-09-18T06:59:51.001Z,4.93
2018-09-18T07:02:23.590Z,4.40
2018-09-18T07:04:51.182Z,5.40
2018-09-18T07:07:18.927Z,4.13
2018-09-18T07:09:46.464Z,3.80
2018-09-18T07:12:14.019Z,4.00
2018-09-18T07:14:41.578Z,4.20
2018-09-18T07:17:09.083Z,4.33
2018-09-18T07:19:36.675Z,3.80
2018-09-18T07:22:08.109Z,4.10
2018-09-18T07:24:35.883Z,3.70
2018-09-18T07:27:04.606Z,4.23
2018-09-18T07:29:32.244Z,4.20
2018-09-18T07:31:59.663Z,4.10
2018-09-18T07:34:27.187Z,3.90
2018-09-18T07:36:54.722Z,3.43
2018-09-18T07:39:22.355Z,4.13
2018-09-18T07:41:49.906Z,3.87
2018-09-18T07:44:17.889Z,4.30
2018-09-18T07:46:45.417Z,4.20
2018-09-18T07:49:13.075Z,4.07
2018-09-18T07:51:40.679Z,4.20
2018-09-18T07:54:08.321Z,4.23
2018-09-18T07:56:35.856Z,3.70
2018-09-18T07:59:05.538Z,3.80
2018-09-18T08:01:33.850Z,4.33
2018-09-18T08:04:01.357Z,3.90
2018-09-18T08:06:28.860Z,4.03
2018-09-18T08:08:56.380Z,4.33
2018-09-18T08:11:24.815Z,3.70
2018-09-18T08:13:52.346Z,3.87
2018-09-18T08:16:20.976Z,3.70
2018-09-18T08:18:48.541Z,4.70
2018-09-18T08:21:16.059Z,3.67
2018-09-18T08:23:43.564Z,3.90
2018-09-18T08:26:11.062Z,3.90
2018-09-18T08:28:38.595Z,4.43
2018-09-18T08:31:06.111Z,3.83
2018-09-18T08:33:33.623Z,4.37
2018-09-18T08:36:01.175Z,3.80
2018-09-18T08:38:28.647Z,4.07
2018-09-18T08:40:56.168Z,4.27
2018-09-18T08:43:23.660Z,3.70
2018-09-18T08:45:51.465Z,4.70
2018-09-18T08:48:18.962Z,4.13
2018-09-18T08:50:46.499Z,3.93
2018-09-18T08:53:14.018Z,4.67
2018-09-18T08:55:41.530Z,4.03
2018-09-18T08:58:09.066Z,4.03
2018-09-18T09:00:36.614Z,4.00
2018-09-18T09:03:04.154Z,3.70
2018-09-18T09:05:31.642Z,3.77
2018-09-18T09:07:59.269Z,3.70
2018-09-18T09:10:26.665Z,4.50
2018-09-18T09:12:54.177Z,3.63
2018-09-18T09:15:22.318Z,3.80
2018-09-18T09:17:49.819Z,3.83
2018-09-18T09:20:17.322Z,3.53
2018-09-18T09:22:44.950Z,4.10
2018-09-18T09:25:12.418Z,3.70
2018-09-18T09:27:40.436Z,4.27
2018-09-18T09:30:08.023Z,3.80
2018-09-18T09:32:35.438Z,3.93
2018-09-18T09:35:02.978Z,3.83
2018-09-18T09:37:30.457Z,3.73
2018-09-18T09:39:57.984Z,3.90
2018-09-18T09:42:25.529Z,3.60
2018-09-18T09:44:53.045Z,3.97
2018-09-18T09:47:20.506Z,4.00
2018-09-18T09:49:48.000Z,3.87
2018-09-18T09:52:15.425Z,4.20
2018-09-18T09:54:42.851Z,3.77
2018-09-18T09:57:10.283Z,3.80
2018-09-18T09:59:37.976Z,3.70
2018-09-18T10:02:10.895Z,4.00
2018-09-18T10:04:38.091Z,4.23
2018-09-18T10:07:05.304Z,3.73
2018-09-18T10:09:32.604Z,3.90
2018-09-18T10:11:59.808Z,4.00
2018-09-18T10:14:27.115Z,4.13
2018-09-18T10:16:54.380Z,4.33
2018-09-18T10:19:21.582Z,4.63
2018-09-18T10:21:48.827Z,4.77
2018-09-18T10:24:16.032Z,4.27
2018-09-18T10:26:43.334Z,4.57
2018-09-18T10:29:11.100Z,4.60
2018-09-18T10:31:39.371Z,4.73
2018-09-18T10:34:06.671Z,4.90
2018-09-18T10:36:33.862Z,4.60
2018-09-18T10:39:01.099Z,4.80
2018-09-18T10:41:28.439Z,5.67
2018-09-18T10:43:55.622Z,4.70
2018-09-18T10:46:22.952Z,4.43
2018-09-18T10:48:54.919Z,4.70
2018-09-18T10:51:22.288Z,5.67
2018-09-18T10:53:49.496Z,4.73
2018-09-18T10:56:16.724Z,4.97
2018-09-18T10:58:43.992Z,6.37
2018-09-18T11:01:11.215Z,5.70
2018-09-18T11:03:38.470Z,5.60
2018-09-18T11:06:05.853Z,5.33
2018-09-18T11:08:33.586Z,5.80
2018-09-18T11:11:00.850Z,6.00
2018-09-18T11:13:28.007Z,5.03
2018-09-18T11:15:55.312Z,5.00
2018-09-18T11:18:23.178Z,4.63
2018-09-18T11:20:50.397Z,5.37
2018-09-18T11:23:18.544Z,6.20
2018-09-18T11:25:45.819Z,6.07
2018-09-18T11:28:14.094Z,5.57
2018-09-18T11:30:41.424Z,6.20
2018-09-18T11:33:08.633Z,5.67
2018-09-18T11:35:35.859Z,5.77
2018-09-18T11:38:03.104Z,5.20
2018-09-18T11:40:30.406Z,6.17
2018-09-18T11:42:57.671Z,5.40
2018-09-18T11:45:24.905Z,4.70
2018-09-18T11:47:52.109Z,6.00
2018-09-18T11:50:19.364Z,5.50
2018-09-18T11:52:46.620Z,5.23
2018-09-18T11:55:13.768Z,5.70
2018-09-18T11:57:41.391Z,5.13
2018-09-18T12:00:08.886Z,4.80
2018-09-18T12:02:36.320Z,5.20
2018-09-18T12:05:03.773Z,5.60
2018-09-18T12:07:31.519Z,5.57
2018-09-18T12:10:02.336Z,5.63
2018-09-18T12:12:29.765Z,5.00
2018-09-18T12:14:57.179Z,5.10
2018-09-18T12:17:24.684Z,5.70
2018-09-18T12:19:52.248Z,4.80
2018-09-18T12:22:19.790Z,4.53
2018-09-18T12:24:47.108Z,5.40
2018-09-18T12:27:14.505Z,4.87
2018-09-18T12:29:41.926Z,5.30
2018-09-18T12:32:09.499Z,5.27
2018-09-18T12:34:37.054Z,5.00
2018-09-18T12:37:04.671Z,5.20
2018-09-18T12:39:32.105Z,4.37
2018-09-18T12:41:59.697Z,4.50
2018-09-18T12:44:27.011Z,4.73
2018-09-18T12:46:54.436Z,4.83
2018-09-18T12:49:21.952Z,4.20
2018-09-18T12:51:49.380Z,5.17
2018-09-18T12:54:16.918Z,4.47
2018-09-18T12:56:44.292Z,4.23
2018-09-18T12:59:11.788Z,4.50
2018-09-18T13:01:39.191Z,4.90
2018-09-18T13:04:06.655Z,4.17
2018-09-18T13:06:34.206Z,4.70
2018-09-18T13:09:01.509Z,4.50
2018-09-18T13:11:28.944Z,5.00
2018-09-18T13:13:56.482Z,5.17
2018-09-18T13:16:23.873Z,4.27
2018-09-18T13:18:51.848Z,4.23
2018-09-18T13:21:19.319Z,4.40
2018-09-18T13:23:46.792Z,4.00
2018-09-18T13:26:14.551Z,4.10
2018-09-18T13:28:41.975Z,4.10
2018-09-18T13:31:09.388Z,4.50
2018-09-18T13:33:36.791Z,3.40
2018-09-18T13:36:04.237Z,3.50
2018-09-18T13:38:31.979Z,3.50
2018-09-18T13:40:59.646Z,3.17
2018-09-18T13:43:26.923Z,3.47
2018-09-18T13:45:54.331Z,3.53
2018-09-18T13:48:21.784Z,3.67
2018-09-18T13:50:49.203Z,3.47
2018-09-18T13:53:16.626Z,2.93
2018-09-18T13:55:44.062Z,3.17
2018-09-18T13:58:11.504Z,2.77
2018-09-18T14:00:38.982Z,2.93
2018-09-18T14:03:06.448Z,3.20
2018-09-18T14:05:33.945Z,3.00
2018-09-18T14:08:01.350Z,2.97
2018-09-18T14:10:28.826Z,2.50
2018-09-18T14:12:56.264Z,3.07
2018-09-18T14:15:24.103Z,2.93
2018-09-18T14:17:51.533Z,2.80
2018-09-18T14:20:19.000Z,2.90
2018-09-18T14:22:46.397Z,3.20
2018-09-18T14:25:13.923Z,3.53
2018-09-18T14:27:41.349Z,2.57
2018-09-18T14:30:08.826Z,2.83
2018-09-18T14:32:36.364Z,2.67
2018-09-18T14:35:03.841Z,3.00
2018-09-18T14:37:31.297Z,2.80
2018-09-18T14:39:58.719Z,3.10
2018-09-18T14:42:26.149Z,2.50
2018-09-18T14:44:53.611Z,3.20
2018-09-18T14:47:21.051Z,3.10
2018-09-18T14:49:48.488Z,2.90
2018-09-18T14:52:15.903Z,2.80
2018-09-18T14:54:43.364Z,3.17
2018-09-18T14:57:10.807Z,3.47
2018-09-18T14:59:38.222Z,3.80
2018-09-18T15:02:05.801Z,3.43
2018-09-18T15:04:33.219Z,3.13
2018-09-18T15:07:00.707Z,3.20
2018-09-18T15:09:28.142Z,2.40
2018-09-18T15:11:55.590Z,3.47
2018-09-18T15:14:23.012Z,2.70
2018-09-18T15:16:50.425Z,2.80
2018-09-18T15:19:17.933Z,2.83
2018-09-18T15:21:47.531Z,2.90
2018-09-18T15:24:15.941Z,3.20
2018-09-18T15:26:44.436Z,2.83
2018-09-18T15:29:11.863Z,3.30
2018-09-18T15:31:39.283Z,2.70
2018-09-18T15:34:06.676Z,3.10
2018-09-18T15:36:34.042Z,2.50
2018-09-18T15:39:01.457Z,3.10
2018-09-18T15:41:28.746Z,2.73
2018-09-18T15:43:56.050Z,2.50
2018-09-18T15:46:23.345Z,2.80
2018-09-18T15:48:50.649Z,2.63
2018-09-18T15:51:17.962Z,2.30
2018-09-18T15:53:45.263Z,2.57
2018-09-18T15:56:12.522Z,2.53
2018-09-18T15:58:39.810Z,2.97
2018-09-18T16:01:07.087Z,2.20
2018-09-18T16:03:34.352Z,2.60
2018-09-18T16:06:01.630Z,2.67
2018-09-18T16:08:28.918Z,1.83
2018-09-18T16:10:58.329Z,2.77
2018-09-18T16:13:25.627Z,2.60
2018-09-18T16:15:52.916Z,2.67
2018-09-18T16:18:20.198Z,2.43
2018-09-18T16:20:47.481Z,3.10
2018-09-18T16:23:14.758Z,3.23
2018-09-18T16:25:42.057Z,3.10
2018-09-18T16:28:09.358Z,2.00
2018-09-18T16:30:36.710Z,2.23
2018-09-18T16:33:04.665Z,2.33
2018-09-18T16:35:31.943Z,2.60
2018-09-18T16:37:59.283Z,2.50
2018-09-18T16:40:26.601Z,2.13
2018-09-18T16:42:53.871Z,2.17
2018-09-18T16:45:21.195Z,2.03
2018-09-18T16:47:48.435Z,2.53
2018-09-18T16:50:15.722Z,2.30
2018-09-18T16:52:43.078Z,2.60
2018-09-18T16:55:10.466Z,2.33
2018-09-18T16:57:37.627Z,2.10
2018-09-18T17:00:04.967Z,2.73
2018-09-18T17:02:32.302Z,2.50
2018-09-18T17:04:59.572Z,2.27
2018-09-18T17:07:26.879Z,2.60
2018-09-18T17:09:54.207Z,2.70
2018-09-18T17:12:21.614Z,2.17
2018-09-18T17:14:48.986Z,2.30
2018-09-18T17:17:16.268Z,2.60
2018-09-18T17:22:25.411Z,2.40
2018-09-18T17:24:52.659Z,2.20
2018-09-18T17:27:20.209Z,2.60
2018-09-18T17:29:50.888Z,3.00
2018-09-18T17:32:18.227Z,4.90
2018-09-18T17:34:45.588Z,6.97
2018-09-18T17:37:13.779Z,4.40
2018-09-18T17:39:41.085Z,2.40
2018-09-18T17:42:08.404Z,3.10
2018-09-18T17:44:40.651Z,2.93
2018-09-18T17:47:07.924Z,2.60
2018-09-18T17:49:35.287Z,2.17
2018-09-18T17:52:02.607Z,3.27
2018-09-18T17:54:29.886Z,2.37
2018-09-18T17:57:01.306Z,3.07
2018-09-18T17:59:29.761Z,3.20
2018-09-18T18:01:57.036Z,3.13
2018-09-18T18:04:24.514Z,2.87
2018-09-18T18:06:51.875Z,3.40
2018-09-18T18:09:19.158Z,4.43
2018-09-18T18:11:46.439Z,3.53
2018-09-18T18:14:16.751Z,3.93
2018-09-18T18:16:44.058Z,4.30
2018-09-18T18:19:11.412Z,3.40
2018-09-18T18:21:38.717Z,3.17
2018-09-18T18:24:06.394Z,3.70
2018-09-18T18:26:33.816Z,4.67
2018-09-18T18:29:02.776Z,4.40
2018-09-18T18:31:31.888Z,4.13
2018-09-18T18:33:59.205Z,3.50
2018-09-18T18:36:26.918Z,3.90
2018-09-18T18:38:54.273Z,4.20
2018-09-18T18:41:21.576Z,3.73
2018-09-18T18:43:48.988Z,4.10
2018-09-18T18:46:18.699Z,5.80
2018-09-18T18:48:46.172Z,4.43
2018-09-18T18:51:13.885Z,4.00
2018-09-18T18:53:41.256Z,4.77
2018-09-18T18:56:08.588Z,4.67
2018-09-18T18:58:35.878Z,4.40
2018-09-18T19:01:07.885Z,4.37
2018-09-18T19:03:35.220Z,4.23
2018-09-18T19:06:02.591Z,4.50
2018-09-18T19:08:29.882Z,4.80
2018-09-18T19:10:57.245Z,4.50
2018-09-18T19:13:24.559Z,4.67
2018-09-18T19:15:56.776Z,3.67
2018-09-18T19:18:24.069Z,4.47
2018-09-18T19:20:51.350Z,4.20
2018-09-18T19:23:18.702Z,4.73
2018-09-18T19:25:46.176Z,4.40
2018-09-18T19:28:13.364Z,4.63
2018-09-18T19:30:40.613Z,4.33
2018-09-18T19:33:10.922Z,4.43
2018-09-18T19:35:38.154Z,4.17
2018-09-18T19:38:05.440Z,4.43
2018-09-18T19:40:32.699Z,3.80
2018-09-18T19:43:00.499Z,4.80
2018-09-18T19:45:27.957Z,4.10
2018-09-18T19:47:58.789Z,4.00
2018-09-18T19:50:26.118Z,4.10
2018-09-18T19:52:53.472Z,4.53
2018-09-18T19:55:20.751Z,5.17
2018-09-18T19:57:48.114Z,4.07
2018-09-18T20:00:15.444Z,3.57
2018-09-18T20:02:47.061Z,4.40
2018-09-18T20:05:14.365Z,4.90
2018-09-18T20:07:41.683Z,4.10
2018-09-18T20:10:09.071Z,4.33
2018-09-18T20:12:36.499Z,4.13
2018-09-18T20:15:04.025Z,4.50
2018-09-18T20:17:35.346Z,4.50
2018-09-18T20:20:02.951Z,3.70
2018-09-18T20:22:30.443Z,4.10
2018-09-18T20:24:57.917Z,4.20
2018-09-18T20:27:25.470Z,4.30
2018-09-18T20:29:53.029Z,4.07
2018-09-18T20:32:20.697Z,4.63
2018-09-18T20:34:49.551Z,4.00
2018-09-18T20:37:17.034Z,4.90
2018-09-18T20:39:44.674Z,5.10
2018-09-18T20:42:12.159Z,5.30
2018-09-18T20:44:39.677Z,5.23
2018-09-18T20:47:11.863Z,5.30
2018-09-18T20:49:39.381Z,5.17
2018-09-18T20:52:06.884Z,4.83
2018-09-18T20:54:34.407Z,4.90
2018-09-18T20:57:01.925Z,5.10
2018-09-18T20:59:29.544Z,5.63
2018-09-18T21:01:58.420Z,5.10
2018-09-18T21:04:25.915Z,4.70
2018-09-18T21:06:53.486Z,5.13
2018-09-18T21:09:20.972Z,4.80
2018-09-18T21:11:48.502Z,5.10
2018-09-18T21:14:20.489Z,4.93
2018-09-18T21:16:47.763Z,4.53
2018-09-18T21:19:15.286Z,4.23
2018-09-18T21:21:42.780Z,5.43
2018-09-18T21:24:10.243Z,5.50
2018-09-18T21:26:37.776Z,4.70
2018-09-18T21:29:09.085Z,4.97
2018-09-18T21:31:36.369Z,4.70
2018-09-18T21:34:03.666Z,4.97
2018-09-18T21:36:30.980Z,4.87
2018-09-18T21:38:58.842Z,4.73
2018-09-18T21:41:26.161Z,5.23
2018-09-18T21:43:53.482Z,5.87
2018-09-18T21:46:21.035Z,5.30
2018-09-18T21:48:48.349Z,5.57
2018-09-18T21:51:15.648Z,5.97
2018-09-18T21:53:42.938Z,5.20
2018-09-18T21:56:10.254Z,5.50
2018-09-18T21:58:37.565Z,5.50
2018-09-18T22:01:05.852Z,6.03
2018-09-18T22:03:33.516Z,5.40
2018-09-18T22:06:01.131Z,5.40
2018-09-18T22:08:29.173Z,5.30
2018-09-18T22:10:56.539Z,5.20
2018-09-18T22:13:23.875Z,5.50
2018-09-18T22:15:51.257Z,6.23
2018-09-18T22:18:19.890Z,6.23
2018-09-18T22:20:47.158Z,6.60
2018-09-18T22:23:14.458Z,6.30
2018-09-18T22:25:45.392Z,6.40
2018-09-18T22:28:12.675Z,5.67
2018-09-18T22:30:40.034Z,5.80
2018-09-18T22:33:07.519Z,6.50
2018-09-18T22:35:34.825Z,6.33
2018-09-18T22:38:02.093Z,5.53
2018-09-18T22:40:32.064Z,5.70
2018-09-18T22:42:59.425Z,6.30
2018-09-18T22:45:26.693Z,5.90
2018-09-18T22:47:53.986Z,5.20
2018-09-18T22:50:21.315Z,5.27
2018-09-18T22:52:48.665Z,4.97
2018-09-18T22:55:15.938Z,4.80
2018-09-18T22:57:43.229Z,4.43
2018-09-18T23:00:10.674Z,5.00
2018-09-18T23:02:38.015Z,4.87
2018-09-18T23:05:08.361Z,4.40
2018-09-18T23:07:35.668Z,4.60
2018-09-18T23:10:03.236Z,4.87
2018-09-18T23:12:30.539Z,5.00
2018-09-18T23:14:58.001Z,4.30
2018-09-18T23:17:25.295Z,4.27
2018-09-18T23:19:52.958Z,4.67
2018-09-18T23:22:20.289Z,5.30
2018-09-18T23:24:47.572Z,4.57
2018-09-18T23:27:14.861Z,5.10
2018-09-18T23:29:42.213Z,5.03
2018-09-18T23:32:10.496Z,4.80
2018-09-18T23:34:37.743Z,4.40
2018-09-18T23:37:05.041Z,4.20
2018-09-18T23:39:32.391Z,5.23
2018-09-18T23:41:59.723Z,4.03
2018-09-18T23:44:27.261Z,5.13
2018-09-18T23:46:54.554Z,4.90
2018-09-18T23:49:21.833Z,5.20
2018-09-18T23:51:49.118Z,4.93
2018-09-18T23:54:16.398Z,5.30
2018-09-18T23:56:43.770Z,5.10
2018-09-18T23:59:11.050Z,5.00
